sensor_id;sensor_type;location;lat;lon;timestamp;pressure;altitude;pressure_sealevel;temperature;humidity
61010;BME280;46897;55.340;86.082;2023-04-28T00:01:18;99463.09;;;10.55;67.60
61010;BME280;46897;55.340;86.082;2023-04-28T00:03:48;99460.34;;;10.56;67.45
61010;BME280;46897;55.340;86.082;2023-04-28T00:06:17;99569.72;;;11.20;67.57
61010;BME280;46897;55.340;86.082;2023-04-28T00:08:48;99460.00;;;10.62;67.39
61010;BME280;46897;55.340;86.082;2023-04-28T00:11:17;99560.38;;;11.29;67.42
61010;BME280;46897;55.340;86.082;2023-04-28T00:13:47;99555.66;;;11.34;67.57
61010;BME280;46897;55.340;86.082;2023-04-28T00:16:16;99518.19;;;11.10;67.33
61010;BME280;46897;55.340;86.082;2023-04-28T00:18:46;99510.34;;;11.09;67.48
61010;BME280;46897;55.340;86.082;2023-04-28T00:21:15;99460.91;;;10.77;67.30
61010;BME280;46897;55.340;86.082;2023-04-28T00:23:45;99525.25;;;11.26;67.40
61010;BME280;46897;55.340;86.082;2023-04-28T00:26:16;99472.41;;;11.08;67.05
61010;BME280;46897;55.340;86.082;2023-04-28T00:28:45;99521.34;;;11.47;66.99
61010;BME280;46897;55.340;86.082;2023-04-28T00:31:15;99519.28;;;11.52;66.90
61010;BME280;46897;55.340;86.082;2023-04-28T00:33:44;99426.59;;;10.92;66.84
61010;BME280;46897;55.340;86.082;2023-04-28T00:36:14;99528.22;;;11.66;66.58
61010;BME280;46897;55.340;86.082;2023-04-28T00:38:43;99483.00;;;11.38;66.61
61010;BME280;46897;55.340;86.082;2023-04-28T00:41:12;99466.81;;;11.43;66.51
61010;BME280;46897;55.340;86.082;2023-04-28T00:43:47;99525.78;;;11.77;66.51
61010;BME280;46897;55.340;86.082;2023-04-28T00:46:20;99554.84;;;12.09;66.38
61010;BME280;46897;55.340;86.082;2023-04-28T00:48:50;99560.56;;;12.17;65.97
61010;BME280;46897;55.340;86.082;2023-04-28T00:51:20;99466.31;;;11.67;66.16
61010;BME280;46897;55.340;86.082;2023-04-28T00:53:49;99443.56;;;11.63;66.04
61010;BME280;46897;55.340;86.082;2023-04-28T00:56:19;99558.16;;;12.41;65.80
61010;BME280;46897;55.340;86.082;2023-04-28T00:58:49;99459.13;;;11.83;65.93
61010;BME280;46897;55.340;86.082;2023-04-28T01:01:19;99456.31;;;12.00;65.92
61010;BME280;46897;55.340;86.082;2023-04-28T01:06:54;99552.53;;;12.74;65.40
61010;BME280;46897;55.340;86.082;2023-04-28T01:15:04;99502.81;;;12.91;65.26
61010;BME280;46897;55.340;86.082;2023-04-28T01:17:40;99464.88;;;12.89;65.12
61010;BME280;46897;55.340;86.082;2023-04-28T01:20:11;99502.09;;;13.29;64.78
61010;BME280;46897;55.340;86.082;2023-04-28T01:22:41;99482.38;;;13.33;64.79
61010;BME280;46897;55.340;86.082;2023-04-28T01:25:29;99484.19;;;13.45;64.57
61010;BME280;46897;55.340;86.082;2023-04-28T01:27:58;99493.16;;;13.57;64.53
61010;BME280;46897;55.340;86.082;2023-04-28T01:30:27;99493.41;;;13.80;64.24
61010;BME280;46897;55.340;86.082;2023-04-28T01:32:58;99439.13;;;13.56;64.17
61010;BME280;46897;55.340;86.082;2023-04-28T01:35:27;99430.63;;;13.64;64.15
61010;BME280;46897;55.340;86.082;2023-04-28T01:37:57;99445.19;;;13.84;63.96
61010;BME280;46897;55.340;86.082;2023-04-28T01:40:28;99434.44;;;13.86;63.71
61010;BME280;46897;55.340;86.082;2023-04-28T01:42:57;99410.50;;;13.73;63.62
61010;BME280;46897;55.340;86.082;2023-04-28T01:45:26;99434.00;;;14.05;63.49
61010;BME280;46897;55.340;86.082;2023-04-28T01:47:55;99381.97;;;14.01;63.21
61010;BME280;46897;55.340;86.082;2023-04-28T01:50:24;99505.00;;;14.80;63.01
61010;BME280;46897;55.340;86.082;2023-04-28T01:53:29;99492.72;;;14.90;62.88
61010;BME280;46897;55.340;86.082;2023-04-28T01:55:59;99483.16;;;14.99;62.84
61010;BME280;46897;55.340;86.082;2023-04-28T01:58:49;99432.78;;;14.71;62.74
61010;BME280;46897;55.340;86.082;2023-04-28T02:01:19;99462.09;;;14.96;62.48
61010;BME280;46897;55.340;86.082;2023-04-28T02:03:48;99452.69;;;15.03;62.47
61010;BME280;46897;55.340;86.082;2023-04-28T02:06:23;99402.63;;;14.95;62.45
61010;BME280;46897;55.340;86.082;2023-04-28T02:08:53;99478.41;;;15.50;61.99
61010;BME280;46897;55.340;86.082;2023-04-28T02:11:30;99454.84;;;15.33;61.64
61010;BME280;46897;55.340;86.082;2023-04-28T02:16:49;99374.88;;;15.33;61.68
61010;BME280;46897;55.340;86.082;2023-04-28T02:19:24;99461.31;;;16.00;61.00
61010;BME280;46897;55.340;86.082;2023-04-28T02:22:11;99457.69;;;16.12;60.77
61010;BME280;46897;55.340;86.082;2023-04-28T02:24:43;99456.13;;;16.21;60.42
61010;BME280;46897;55.340;86.082;2023-04-28T02:27:37;99467.88;;;16.41;60.10
61010;BME280;46897;55.340;86.082;2023-04-28T02:33:02;99459.34;;;16.58;59.45
61010;BME280;46897;55.340;86.082;2023-04-28T02:36:00;99469.50;;;16.87;58.71
61010;BME280;46897;55.340;86.082;2023-04-28T02:38:30;99459.59;;;17.10;58.30
61010;BME280;46897;55.340;86.082;2023-04-28T02:41:01;99431.44;;;17.27;58.01
61010;BME280;46897;55.340;86.082;2023-04-28T02:43:33;99436.78;;;17.48;57.01
61010;BME280;46897;55.340;86.082;2023-04-28T02:46:02;99449.13;;;17.81;56.89
61010;BME280;46897;55.340;86.082;2023-04-28T02:48:32;99437.38;;;17.94;56.23
61010;BME280;46897;55.340;86.082;2023-04-28T02:51:21;99439.44;;;18.21;55.66
61010;BME280;46897;55.340;86.082;2023-04-28T02:53:50;99429.06;;;18.27;55.44
61010;BME280;46897;55.340;86.082;2023-04-28T02:56:37;99434.72;;;18.44;54.85
61010;BME280;46897;55.340;86.082;2023-04-28T02:59:08;99411.63;;;18.43;54.68
61010;BME280;46897;55.340;86.082;2023-04-28T03:01:38;99434.53;;;18.76;54.72
61010;BME280;46897;55.340;86.082;2023-04-28T03:04:07;99443.59;;;18.95;53.64
61010;BME280;46897;55.340;86.082;2023-04-28T03:06:37;99443.91;;;19.11;53.33
61010;BME280;46897;55.340;86.082;2023-04-28T03:09:06;99428.81;;;19.30;53.14
61010;BME280;46897;55.340;86.082;2023-04-28T03:11:35;99433.41;;;19.57;52.91
61010;BME280;46897;55.340;86.082;2023-04-28T03:14:24;99421.25;;;19.82;52.45
61010;BME280;46897;55.340;86.082;2023-04-28T03:16:53;99420.59;;;19.98;52.07
61010;BME280;46897;55.340;86.082;2023-04-28T03:22:11;99418.19;;;20.32;52.26
61010;BME280;46897;55.340;86.082;2023-04-28T03:24:40;99415.25;;;20.53;51.52
61010;BME280;46897;55.340;86.082;2023-04-28T03:27:10;99413.44;;;20.72;51.38
61010;BME280;46897;55.340;86.082;2023-04-28T03:32:28;99395.00;;;21.13;50.56
61010;BME280;46897;55.340;86.082;2023-04-28T03:34:57;99386.63;;;21.16;49.31
61010;BME280;46897;55.340;86.082;2023-04-28T03:37:28;99394.59;;;21.26;49.41
61010;BME280;46897;55.340;86.082;2023-04-28T03:40:14;99382.06;;;21.34;49.62
61010;BME280;46897;55.340;86.082;2023-04-28T03:42:44;99381.69;;;21.47;48.71
61010;BME280;46897;55.340;86.082;2023-04-28T03:45:33;99383.75;;;21.35;47.93
61010;BME280;46897;55.340;86.082;2023-04-28T03:48:02;99374.25;;;21.23;48.58
61010;BME280;46897;55.340;86.082;2023-04-28T03:50:32;99360.09;;;21.21;48.05
61010;BME280;46897;55.340;86.082;2023-04-28T03:53:01;99371.56;;;21.23;47.97
61010;BME280;46897;55.340;86.082;2023-04-28T03:55:30;99374.56;;;21.20;46.38
61010;BME280;46897;55.340;86.082;2023-04-28T03:58:02;99369.47;;;21.17;47.34
61010;BME280;46897;55.340;86.082;2023-04-28T04:00:32;99361.84;;;21.30;47.43
61010;BME280;46897;55.340;86.082;2023-04-28T04:03:01;99356.59;;;21.47;47.34
61010;BME280;46897;55.340;86.082;2023-04-28T04:05:31;99348.81;;;21.62;46.70
61010;BME280;46897;55.340;86.082;2023-04-28T04:08:00;99331.09;;;21.59;46.41
61010;BME280;46897;55.340;86.082;2023-04-28T04:13:17;99311.47;;;21.75;45.75
61010;BME280;46897;55.340;86.082;2023-04-28T04:15:48;99340.59;;;21.71;45.06
61010;BME280;46897;55.340;86.082;2023-04-28T04:21:22;99350.97;;;21.40;45.60
61010;BME280;46897;55.340;86.082;2023-04-28T04:24:10;99346.38;;;21.32;46.20
61010;BME280;46897;55.340;86.082;2023-04-28T04:26:39;99334.81;;;21.40;45.56
61010;BME280;46897;55.340;86.082;2023-04-28T04:29:25;99324.34;;;21.29;45.33
61010;BME280;46897;55.340;86.082;2023-04-28T04:32:02;99341.91;;;21.41;45.49
61010;BME280;46897;55.340;86.082;2023-04-28T04:34:31;99329.84;;;21.45;45.81
61010;BME280;46897;55.340;86.082;2023-04-28T04:37:00;99333.78;;;21.59;45.81
61010;BME280;46897;55.340;86.082;2023-04-28T04:39:51;99330.09;;;21.60;45.42
61010;BME280;46897;55.340;86.082;2023-04-28T04:42:20;99313.91;;;21.52;45.54
61010;BME280;46897;55.340;86.082;2023-04-28T04:45:07;99282.66;;;21.33;45.24
61010;BME280;46897;55.340;86.082;2023-04-28T04:47:39;99322.72;;;21.62;44.52
61010;BME280;46897;55.340;86.082;2023-04-28T04:50:09;99313.16;;;21.68;44.31
61010;BME280;46897;55.340;86.082;2023-04-28T04:52:56;99326.25;;;22.05;45.01
61010;BME280;46897;55.340;86.082;2023-04-28T04:55:25;99313.72;;;22.30;44.71
61010;BME280;46897;55.340;86.082;2023-04-28T04:57:54;99288.28;;;22.25;44.27
61010;BME280;46897;55.340;86.082;2023-04-28T05:00:24;99321.53;;;22.50;44.56
61010;BME280;46897;55.340;86.082;2023-04-28T05:02:54;99306.22;;;22.67;44.31
61010;BME280;46897;55.340;86.082;2023-04-28T05:05:24;99307.06;;;22.84;44.09
61010;BME280;46897;55.340;86.082;2023-04-28T05:10:42;99312.44;;;23.25;44.51
61010;BME280;46897;55.340;86.082;2023-04-28T05:13:11;99244.81;;;23.02;44.14
61010;BME280;46897;55.340;86.082;2023-04-28T05:15:58;99318.63;;;23.58;43.78
61010;BME280;46897;55.340;86.082;2023-04-28T05:18:46;99284.16;;;23.60;43.54
61010;BME280;46897;55.340;86.082;2023-04-28T05:21:17;99306.06;;;23.73;43.05
61010;BME280;46897;55.340;86.082;2023-04-28T05:23:46;99305.56;;;23.86;42.96
61010;BME280;46897;55.340;86.082;2023-04-28T05:26:16;99305.88;;;23.91;42.81
61010;BME280;46897;55.340;86.082;2023-04-28T05:28:45;99316.44;;;24.09;43.23
61010;BME280;46897;55.340;86.082;2023-04-28T05:31:14;99308.88;;;24.28;42.56
61010;BME280;46897;55.340;86.082;2023-04-28T05:33:44;99307.88;;;24.29;42.38
61010;BME280;46897;55.340;86.082;2023-04-28T05:36:14;99321.06;;;24.32;41.87
61010;BME280;46897;55.340;86.082;2023-04-28T05:38:44;99307.94;;;24.21;41.76
61010;BME280;46897;55.340;86.082;2023-04-28T05:41:13;99301.19;;;24.17;41.81
61010;BME280;46897;55.340;86.082;2023-04-28T05:44:00;99306.88;;;24.30;42.36
61010;BME280;46897;55.340;86.082;2023-04-28T05:46:47;99301.25;;;24.31;41.49
61010;BME280;46897;55.340;86.082;2023-04-28T05:52:06;99292.63;;;24.05;41.03
61010;BME280;46897;55.340;86.082;2023-04-28T05:54:35;99295.38;;;23.97;41.08
61010;BME280;46897;55.340;86.082;2023-04-28T05:59:51;99298.28;;;23.87;41.45
61010;BME280;46897;55.340;86.082;2023-04-28T06:02:20;99295.59;;;23.87;40.77
61010;BME280;46897;55.340;86.082;2023-04-28T06:04:52;99289.13;;;23.96;40.52
61010;BME280;46897;55.340;86.082;2023-04-28T06:07:22;99278.59;;;24.09;40.54
61010;BME280;46897;55.340;86.082;2023-04-28T06:09:51;99275.22;;;24.07;41.06
61010;BME280;46897;55.340;86.082;2023-04-28T06:12:22;99288.91;;;24.06;40.36
61010;BME280;46897;55.340;86.082;2023-04-28T06:14:51;99291.88;;;23.88;39.98
61010;BME280;46897;55.340;86.082;2023-04-28T06:17:22;99272.00;;;23.72;40.37
61010;BME280;46897;55.340;86.082;2023-04-28T06:22:59;99257.19;;;23.52;40.84
61010;BME280;46897;55.340;86.082;2023-04-28T06:25:29;99271.53;;;23.52;41.02
61010;BME280;46897;55.340;86.082;2023-04-28T06:28:00;99285.16;;;23.67;40.64
61010;BME280;46897;55.340;86.082;2023-04-28T06:30:48;99286.50;;;23.71;40.37
61010;BME280;46897;55.340;86.082;2023-04-28T06:33:19;99272.34;;;23.69;41.22
61010;BME280;46897;55.340;86.082;2023-04-28T06:36:09;99266.75;;;23.71;41.06
61010;BME280;46897;55.340;86.082;2023-04-28T06:38:41;99279.72;;;23.75;40.63
61010;BME280;46897;55.340;86.082;2023-04-28T06:44:18;99274.69;;;23.72;40.86
61010;BME280;46897;55.340;86.082;2023-04-28T06:46:47;99266.03;;;23.85;40.59
61010;BME280;46897;55.340;86.082;2023-04-28T06:49:34;99242.38;;;23.96;40.46
61010;BME280;46897;55.340;86.082;2023-04-28T06:52:12;99262.22;;;24.34;40.65
61010;BME280;46897;55.340;86.082;2023-04-28T06:54:44;99254.50;;;24.54;40.53
61010;BME280;46897;55.340;86.082;2023-04-28T06:57:13;99232.03;;;24.53;40.81
61010;BME280;46897;55.340;86.082;2023-04-28T06:59:42;99264.50;;;24.68;40.02
61010;BME280;46897;55.340;86.082;2023-04-28T07:05:18;99245.97;;;24.65;39.82
61010;BME280;46897;55.340;86.082;2023-04-28T07:07:47;99249.53;;;24.81;40.40
61010;BME280;46897;55.340;86.082;2023-04-28T07:10:18;99240.06;;;25.00;40.14
61010;BME280;46897;55.340;86.082;2023-04-28T07:12:49;99238.41;;;25.14;39.67
61010;BME280;46897;55.340;86.082;2023-04-28T07:15:19;99246.44;;;25.22;40.04
61010;BME280;46897;55.340;86.082;2023-04-28T07:17:50;99213.28;;;25.20;39.53
61010;BME280;46897;55.340;86.082;2023-04-28T07:20:19;99237.41;;;25.29;38.51
61010;BME280;46897;55.340;86.082;2023-04-28T07:22:51;99237.75;;;25.26;38.25
61010;BME280;46897;55.340;86.082;2023-04-28T07:28:09;99239.81;;;25.24;38.32
61010;BME280;46897;55.340;86.082;2023-04-28T07:30:39;99235.41;;;25.08;38.36
61010;BME280;46897;55.340;86.082;2023-04-28T07:33:08;99254.91;;;25.04;38.67
61010;BME280;46897;55.340;86.082;2023-04-28T07:35:37;99227.63;;;24.90;38.20
61010;BME280;46897;55.340;86.082;2023-04-28T07:38:06;99242.78;;;25.00;39.06
61010;BME280;46897;55.340;86.082;2023-04-28T07:40:37;99250.69;;;25.01;38.15
61010;BME280;46897;55.340;86.082;2023-04-28T07:43:06;99239.03;;;25.01;38.08
61010;BME280;46897;55.340;86.082;2023-04-28T07:45:37;99225.03;;;24.97;38.58
61010;BME280;46897;55.340;86.082;2023-04-28T07:48:06;99223.53;;;24.95;39.15
61010;BME280;46897;55.340;86.082;2023-04-28T07:53:23;99236.63;;;25.06;38.80
61010;BME280;46897;55.340;86.082;2023-04-28T07:56:11;99233.72;;;25.07;38.74
61010;BME280;46897;55.340;86.082;2023-04-28T07:58:40;99245.00;;;25.11;38.46
61010;BME280;46897;55.340;86.082;2023-04-28T08:01:09;99231.84;;;25.08;37.94
61010;BME280;46897;55.340;86.082;2023-04-28T08:03:47;99229.50;;;25.05;38.40
61010;BME280;46897;55.340;86.082;2023-04-28T08:06:34;99224.84;;;24.99;38.47
61010;BME280;46897;55.340;86.082;2023-04-28T08:09:03;99205.28;;;24.73;38.30
61010;BME280;46897;55.340;86.082;2023-04-28T08:11:37;99218.22;;;24.86;37.41
61010;BME280;46897;55.340;86.082;2023-04-28T08:14:06;99228.16;;;24.86;37.48
61010;BME280;46897;55.340;86.082;2023-04-28T08:16:35;99234.91;;;24.90;37.07
61010;BME280;46897;55.340;86.082;2023-04-28T08:19:13;99234.34;;;24.95;36.83
61010;BME280;46897;55.340;86.082;2023-04-28T08:21:50;99183.38;;;24.83;37.58
61010;BME280;46897;55.340;86.082;2023-04-28T08:24:20;99229.47;;;25.28;37.12
61010;BME280;46897;55.340;86.082;2023-04-28T08:30:13;99218.09;;;25.33;36.76
61010;BME280;46897;55.340;86.082;2023-04-28T08:32:43;99203.84;;;25.16;36.91
61010;BME280;46897;55.340;86.082;2023-04-28T08:35:14;99229.34;;;25.21;36.70
61010;BME280;46897;55.340;86.082;2023-04-28T08:37:44;99220.28;;;25.14;36.69
61010;BME280;46897;55.340;86.082;2023-04-28T08:40:16;99266.75;;;25.03;36.93
61010;BME280;46897;55.340;86.082;2023-04-28T08:42:46;99211.59;;;25.04;36.65
61010;BME280;46897;55.340;86.082;2023-04-28T08:45:38;99211.41;;;25.20;37.14
61010;BME280;46897;55.340;86.082;2023-04-28T08:48:16;99205.84;;;25.37;36.07
61010;BME280;46897;55.340;86.082;2023-04-28T08:50:49;99200.22;;;25.53;36.49
61010;BME280;46897;55.340;86.082;2023-04-28T08:53:22;99197.97;;;25.57;36.22
